createdAt,value
2023-08-29T00:04:04.491Z,100.00
2023-08-29T00:09:06.525Z,100.00
2023-08-29T00:14:10.055Z,100.00
2023-08-29T00:19:12.263Z,100.00
2023-08-29T00:24:14.644Z,100.00
2023-08-29T00:29:18.143Z,100.00
2023-08-29T00:34:20.316Z,100.00
2023-08-29T00:39:22.512Z,100.00
2023-08-29T00:44:26.424Z,100.00
2023-08-29T00:49:29.140Z,100.00
2023-08-29T00:54:31.365Z,100.00
2023-08-29T00:59:35.161Z,100.00
2023-08-29T01:04:37.466Z,100.00
2023-08-29T01:09:40.131Z,100.00
2023-08-29T01:14:51.995Z,100.00
2023-08-29T01:19:55.043Z,100.00
2023-08-29T01:25:03.202Z,100.00
2023-08-29T01:30:08.329Z,100.00
2023-08-29T01:35:14.597Z,100.00
2023-08-29T01:40:16.742Z,100.00
2023-08-29T01:45:20.524Z,100.00
2023-08-29T01:50:23.628Z,100.00
2023-08-29T01:55:26.922Z,100.00
2023-08-29T02:00:32.119Z,100.00
2023-08-29T02:05:34.344Z,100.00
2023-08-29T02:10:36.521Z,100.00
2023-08-29T02:15:40.042Z,100.00
2023-08-29T02:20:42.222Z,100.00
2023-08-29T02:25:44.827Z,100.00
2023-08-29T02:30:48.311Z,100.00
2023-08-29T02:35:50.783Z,100.00
2023-08-29T02:40:53.130Z,100.00
2023-08-29T02:45:56.681Z,100.00
2023-08-29T02:50:58.480Z,100.00
2023-08-29T02:56:00.620Z,100.00
2023-08-29T03:01:03.977Z,100.00
2023-08-29T03:06:06.259Z,98.72
2023-08-29T03:11:08.492Z,95.57
2023-08-29T03:16:18.111Z,93.71
2023-08-29T03:21:22.180Z,91.81
2023-08-29T03:26:24.705Z,91.36
2023-08-29T03:31:27.821Z,90.90
2023-08-29T03:36:29.914Z,90.63
2023-08-29T03:41:31.955Z,88.60
2023-08-29T03:46:35.568Z,89.25
2023-08-29T03:51:37.752Z,89.77
2023-08-29T03:56:40.986Z,89.57
2023-08-29T04:01:44.682Z,89.39
2023-08-29T04:06:46.705Z,89.96
2023-08-29T04:11:48.783Z,89.87
2023-08-29T04:16:52.352Z,89.34
2023-08-29T04:21:54.325Z,90.77
2023-08-29T04:26:56.747Z,92.74
2023-08-29T04:32:00.121Z,92.83
2023-08-29T04:37:02.279Z,93.05
2023-08-29T04:42:04.645Z,92.08
2023-08-29T04:47:08.016Z,91.90
2023-08-29T04:52:10.148Z,91.53
2023-08-29T04:57:12.284Z,93.65
2023-08-29T05:02:16.178Z,93.65
2023-08-29T05:07:18.265Z,91.84
2023-08-29T05:12:20.410Z,92.60
2023-08-29T05:17:23.868Z,91.93
2023-08-29T05:22:26.097Z,91.58
2023-08-29T05:27:28.518Z,92.06
2023-08-29T05:32:31.940Z,92.69
2023-08-29T05:37:34.168Z,92.03
2023-08-29T05:42:36.270Z,92.33
2023-08-29T05:47:39.786Z,92.85
2023-08-29T05:52:42.170Z,95.95
2023-08-29T05:57:44.345Z,95.93
2023-08-29T06:02:47.876Z,93.02
2023-08-29T06:07:49.724Z,93.57
2023-08-29T06:12:51.914Z,92.79
2023-08-29T06:17:55.655Z,92.91
2023-08-29T06:22:58.033Z,92.01
2023-08-29T06:28:00.281Z,92.46
2023-08-29T06:33:04.067Z,93.14
2023-08-29T06:38:06.837Z,93.22
2023-08-29T06:43:09.194Z,92.54
2023-08-29T06:48:12.713Z,90.84
2023-08-29T06:53:14.861Z,90.96
2023-08-29T06:58:17.051Z,94.24
2023-08-29T07:03:21.001Z,96.64
2023-08-29T07:08:23.524Z,93.56
2023-08-29T07:13:25.528Z,91.92
2023-08-29T07:18:28.950Z,92.77
2023-08-29T07:23:31.744Z,93.27
2023-08-29T07:28:34.169Z,95.17
2023-08-29T07:33:37.884Z,94.04
2023-08-29T07:38:40.402Z,90.85
2023-08-29T07:43:42.494Z,90.51
2023-08-29T07:48:45.603Z,91.13
2023-08-29T07:53:48.135Z,89.40
2023-08-29T07:58:50.506Z,88.15
2023-08-29T08:03:54.302Z,85.30
2023-08-29T08:08:56.516Z,89.04
2023-08-29T08:13:59.759Z,87.99
2023-08-29T08:19:03.309Z,90.93
2023-08-29T08:24:06.249Z,92.14
2023-08-29T08:29:08.264Z,92.64
2023-08-29T08:34:11.901Z,90.82
2023-08-29T08:39:14.119Z,90.87
2023-08-29T08:44:17.171Z,89.06
2023-08-29T08:49:20.811Z,92.27
2023-08-29T08:54:24.524Z,91.23
2023-08-29T08:59:27.377Z,91.75
2023-08-29T09:04:30.875Z,90.63
2023-08-29T09:09:32.993Z,90.06
2023-08-29T09:14:35.261Z,94.25
2023-08-29T09:19:38.821Z,89.03
2023-08-29T09:24:42.149Z,85.23
2023-08-29T09:29:44.695Z,84.36
2023-08-29T09:34:48.263Z,83.86
2023-08-29T09:39:50.233Z,87.60
2023-08-29T09:44:52.316Z,82.62
2023-08-29T09:49:55.788Z,81.52
2023-08-29T09:55:00.315Z,79.88
2023-08-29T10:00:03.185Z,79.58
2023-08-29T10:05:10.037Z,77.33
2023-08-29T10:10:12.221Z,77.83
2023-08-29T10:15:14.818Z,78.60
2023-08-29T10:20:18.706Z,80.02
2023-08-29T10:25:22.553Z,78.28
2023-08-29T10:30:26.447Z,78.13
2023-08-29T10:35:32.912Z,76.00
2023-08-29T10:40:36.188Z,75.46
2023-08-29T10:45:47.746Z,74.97
2023-08-29T10:51:11.105Z,75.48
2023-08-29T10:56:13.294Z,75.61
2023-08-29T11:01:32.311Z,75.48
2023-08-29T11:06:55.741Z,75.21
2023-08-29T11:12:08.386Z,75.48
2023-08-29T11:17:13.907Z,77.12
2023-08-29T11:22:18.000Z,77.14
2023-08-29T11:27:20.144Z,75.60
2023-08-29T11:32:22.950Z,77.81
2023-08-29T11:37:31.705Z,76.67
2023-08-29T11:43:10.383Z,75.78
2023-08-29T11:47:56.317Z,77.37
2023-08-29T11:52:59.853Z,71.92
2023-08-29T11:58:02.184Z,73.66
2023-08-29T12:03:04.509Z,75.10
2023-08-29T12:08:08.286Z,74.00
2023-08-29T12:13:13.695Z,76.04
2023-08-29T12:18:24.029Z,73.85
2023-08-29T12:23:28.312Z,75.75
2023-08-29T12:28:30.529Z,78.34
2023-08-29T12:33:33.079Z,77.15
2023-08-29T12:38:36.571Z,76.86
2023-08-29T12:43:38.329Z,76.43
2023-08-29T12:48:40.433Z,78.07
2023-08-29T12:53:43.656Z,78.08
2023-08-29T12:58:45.491Z,77.92
2023-08-29T13:03:47.450Z,75.76
2023-08-29T13:08:50.670Z,75.67
2023-08-29T13:13:52.414Z,78.18
2023-08-29T13:18:54.468Z,82.46
2023-08-29T13:23:57.565Z,84.52
2023-08-29T13:28:59.325Z,85.17
2023-08-29T13:34:01.334Z,85.62
2023-08-29T13:39:04.890Z,88.57
2023-08-29T13:44:07.061Z,89.84
2023-08-29T13:49:09.079Z,90.90
2023-08-29T13:54:12.454Z,93.75
2023-08-29T13:59:14.653Z,90.84
2023-08-29T14:04:16.815Z,90.35
2023-08-29T14:09:20.325Z,88.50
2023-08-29T14:14:22.564Z,90.48
2023-08-29T14:19:25.044Z,89.61
2023-08-29T14:24:28.163Z,90.24
2023-08-29T14:29:30.559Z,88.78
2023-08-29T14:34:32.538Z,89.76
2023-08-29T14:39:35.692Z,85.20
2023-08-29T14:44:38.107Z,89.53
2023-08-29T14:49:39.911Z,87.60
2023-08-29T14:54:43.406Z,94.93
2023-08-29T14:59:45.673Z,97.19
2023-08-29T15:04:47.824Z,97.77
2023-08-29T15:09:51.421Z,99.21
2023-08-29T15:14:53.590Z,100.00
2023-08-29T15:19:55.343Z,99.67
2023-08-29T15:24:58.445Z,99.92
2023-08-29T15:30:00.662Z,98.25
2023-08-29T15:35:05.813Z,98.89
2023-08-29T15:40:09.697Z,98.92
2023-08-29T15:45:11.767Z,98.72
2023-08-29T15:50:13.540Z,99.38
2023-08-29T15:55:17.125Z,98.17
2023-08-29T16:00:19.268Z,96.64
2023-08-29T16:05:21.174Z,99.76
2023-08-29T16:10:24.398Z,99.21
2023-08-29T16:15:26.144Z,97.46
2023-08-29T16:20:28.008Z,98.16
2023-08-29T16:25:31.697Z,96.73
2023-08-29T16:30:34.419Z,97.72
2023-08-29T16:35:36.634Z,98.60
2023-08-29T16:40:41.054Z,99.79
2023-08-29T16:45:42.928Z,98.94
2023-08-29T16:50:45.808Z,98.45
2023-08-29T16:55:48.943Z,98.33
2023-08-29T17:00:51.025Z,98.87
2023-08-29T17:05:53.280Z,98.47
2023-08-29T17:10:56.862Z,98.20
2023-08-29T17:15:59.044Z,100.00
2023-08-29T17:21:01.202Z,100.00
2023-08-29T17:26:04.935Z,100.00
2023-08-29T17:31:10.224Z,100.00
2023-08-29T17:36:12.704Z,100.00
2023-08-29T17:41:17.237Z,100.00
2023-08-29T17:46:19.504Z,100.00
2023-08-29T17:51:21.635Z,100.00
2023-08-29T17:56:25.350Z,100.00
2023-08-29T18:01:27.815Z,100.00
2023-08-29T18:06:29.682Z,100.00
2023-08-29T18:11:33.431Z,100.00
2023-08-29T18:16:35.869Z,100.00
2023-08-29T18:21:38.375Z,100.00
2023-08-29T18:26:41.970Z,100.00
2023-08-29T18:31:43.815Z,100.00
2023-08-29T18:36:46.501Z,100.00
2023-08-29T18:41:50.103Z,100.00
2023-08-29T18:46:52.004Z,100.00
2023-08-29T18:51:54.432Z,100.00
2023-08-29T18:56:57.595Z,100.00
2023-08-29T19:01:59.577Z,100.00
2023-08-29T19:07:01.877Z,100.00
2023-08-29T19:12:05.795Z,100.00
2023-08-29T19:17:07.992Z,100.00
2023-08-29T19:22:10.086Z,100.00
2023-08-29T19:27:21.771Z,100.00
2023-08-29T19:32:27.390Z,100.00
2023-08-29T19:37:29.827Z,100.00
2023-08-29T19:42:33.065Z,100.00
2023-08-29T19:47:35.368Z,100.00
2023-08-29T19:52:37.607Z,100.00
2023-08-29T19:57:41.413Z,100.00
2023-08-29T20:02:44.229Z,100.00
2023-08-29T20:07:46.530Z,100.00
2023-08-29T20:12:50.026Z,100.00
2023-08-29T20:17:52.715Z,100.00
2023-08-29T20:22:54.914Z,100.00
2023-08-29T20:27:58.224Z,100.00
2023-08-29T20:33:00.423Z,100.00
2023-08-29T20:38:02.621Z,100.00
2023-08-29T20:43:06.294Z,100.00
2023-08-29T20:48:08.865Z,100.00
2023-08-29T20:53:11.210Z,100.00
2023-08-29T20:58:14.899Z,100.00
2023-08-29T21:03:17.173Z,100.00
2023-08-29T21:08:19.498Z,100.00
2023-08-29T21:13:24.296Z,100.00
2023-08-29T21:18:26.529Z,100.00
2023-08-29T21:23:31.970Z,100.00
2023-08-29T21:28:35.539Z,100.00
2023-08-29T21:33:37.654Z,100.00
2023-08-29T21:38:40.264Z,100.00
2023-08-29T21:43:43.860Z,100.00
2023-08-29T21:48:46.032Z,100.00
2023-08-29T21:53:48.018Z,100.00
2023-08-29T21:58:51.376Z,100.00
2023-08-29T22:03:53.938Z,100.00
2023-08-29T22:08:55.939Z,100.00
2023-08-29T22:13:59.653Z,100.00
2023-08-29T22:19:01.959Z,100.00
2023-08-29T22:24:04.299Z,100.00
2023-08-29T22:29:08.072Z,100.00
2023-08-29T22:34:10.109Z,100.00
2023-08-29T22:39:13.861Z,100.00
2023-08-29T22:44:18.178Z,100.00
2023-08-29T22:49:20.693Z,100.00
2023-08-29T22:54:23.149Z,100.00
2023-08-29T22:59:27.247Z,100.00
2023-08-29T23:04:29.521Z,100.00
2023-08-29T23:09:32.602Z,100.00
2023-08-29T23:14:36.221Z,100.00
2023-08-29T23:19:38.365Z,100.00
2023-08-29T23:24:40.196Z,100.00
2023-08-29T23:29:43.580Z,100.00
2023-08-29T23:34:45.517Z,100.00
2023-08-29T23:39:47.859Z,100.00
2023-08-29T23:44:51.663Z,100.00
2023-08-29T23:49:53.836Z,100.00
2023-08-29T23:54:55.930Z,100.00
2023-08-29T23:59:59.526Z,100.00
